Southgate, Michigan
Current Conditions -  °F | °C
As of 2:53 PM on Saturday 25 Oct 2014 (Local Time) from KDTW Reporting Station
Few Clouds Few Clouds  
Wind Chill: 66°   Ceiling: Unl
Heat Index: 66°   Visibility: 10mi
Dew Point: 50°   Wind: 21mph
Humidity: 56%   Direction: 230°SW
Pressure: 29.75"   Gusts: 24mph
Location:  42.2°N, 83.21°W
Report Text: KDTW 251853Z 23018G21KT 10SM FEW025 19/10 A2975 RMK AO2 SLP075 T01890100
Loading
Personal Weather Stations






























Interactive Weather Map
Tropical Storm Tracking
New forecast layout! Learn more

10-Day Weather Forecast

Advertisements
Track Severe Weather on mobile